sensor_id;sensor_type;location;lat;lon;timestamp;pressure;altitude;pressure_sealevel;temperature;humidity
76973;BME280;65907;53.640;10.050;2023-02-11T00:02:03;102472.31;;;19.28;32.10
76973;BME280;65907;53.640;10.050;2023-02-11T00:04:29;102462.94;;;19.24;32.13
76973;BME280;65907;53.640;10.050;2023-02-11T00:06:54;102453.44;;;19.23;32.09
76973;BME280;65907;53.640;10.050;2023-02-11T00:09:19;102443.00;;;19.23;31.90
76973;BME280;65907;53.640;10.050;2023-02-11T00:11:45;102436.09;;;19.22;32.14
76973;BME280;65907;53.640;10.050;2023-02-11T00:14:10;102450.72;;;19.25;32.20
76973;BME280;65907;53.640;10.050;2023-02-11T00:16:35;102461.16;;;19.25;32.07
76973;BME280;65907;53.640;10.050;2023-02-11T00:19:03;102469.06;;;19.23;32.05
76973;BME280;65907;53.640;10.050;2023-02-11T00:21:30;102463.91;;;19.22;32.33
76973;BME280;65907;53.640;10.050;2023-02-11T00:23:55;102459.88;;;19.16;32.27
76973;BME280;65907;53.640;10.050;2023-02-11T00:26:23;102446.84;;;19.16;32.17
76973;BME280;65907;53.640;10.050;2023-02-11T00:28:49;102465.53;;;19.24;32.15
76973;BME280;65907;53.640;10.050;2023-02-11T00:31:15;102465.59;;;19.23;32.17
76973;BME280;65907;53.640;10.050;2023-02-11T00:33:41;102456.03;;;19.23;32.20
76973;BME280;65907;53.640;10.050;2023-02-11T00:36:08;102449.91;;;19.24;31.92
76973;BME280;65907;53.640;10.050;2023-02-11T00:38:33;102449.81;;;19.26;32.05
76973;BME280;65907;53.640;10.050;2023-02-11T00:40:59;102463.91;;;19.22;32.11
76973;BME280;65907;53.640;10.050;2023-02-11T00:43:24;102460.41;;;19.23;32.10
76973;BME280;65907;53.640;10.050;2023-02-11T00:45:49;102466.47;;;19.23;32.12
76973;BME280;65907;53.640;10.050;2023-02-11T00:48:17;102471.75;;;19.22;32.30
76973;BME280;65907;53.640;10.050;2023-02-11T00:50:45;102480.34;;;19.24;32.00
76973;BME280;65907;53.640;10.050;2023-02-11T00:53:10;102475.22;;;19.22;32.14
76973;BME280;65907;53.640;10.050;2023-02-11T00:55:35;102474.50;;;19.18;31.99
76973;BME280;65907;53.640;10.050;2023-02-11T00:58:01;102477.06;;;19.20;31.98
76973;BME280;65907;53.640;10.050;2023-02-11T01:00:26;102490.78;;;19.24;32.13
76973;BME280;65907;53.640;10.050;2023-02-11T01:02:51;102492.75;;;19.18;32.17
76973;BME280;65907;53.640;10.050;2023-02-11T01:05:17;102489.38;;;19.16;32.42
76973;BME280;65907;53.640;10.050;2023-02-11T01:07:42;102484.25;;;19.15;32.37
76973;BME280;65907;53.640;10.050;2023-02-11T01:10:10;102477.97;;;19.19;32.21
76973;BME280;65907;53.640;10.050;2023-02-11T01:12:35;102472.09;;;19.14;32.31
76973;BME280;65907;53.640;10.050;2023-02-11T01:15:01;102474.50;;;19.18;32.05
76973;BME280;65907;53.640;10.050;2023-02-11T01:17:26;102464.16;;;19.17;32.16
76973;BME280;65907;53.640;10.050;2023-02-11T01:19:51;102458.94;;;19.17;32.14
76973;BME280;65907;53.640;10.050;2023-02-11T01:22:16;102476.44;;;19.15;32.24
76973;BME280;65907;53.640;10.050;2023-02-11T01:24:41;102471.91;;;19.18;32.22
76973;BME280;65907;53.640;10.050;2023-02-11T01:27:07;102476.97;;;19.22;32.23
76973;BME280;65907;53.640;10.050;2023-02-11T01:29:34;102457.94;;;19.19;32.28
76973;BME280;65907;53.640;10.050;2023-02-11T01:32:00;102454.41;;;19.20;32.36
76973;BME280;65907;53.640;10.050;2023-02-11T01:34:25;102446.53;;;18.84;32.61
76973;BME280;65907;53.640;10.050;2023-02-11T01:36:58;102449.94;;;18.86;32.54
76973;BME280;65907;53.640;10.050;2023-02-11T01:39:24;102452.03;;;18.97;32.38
76973;BME280;65907;53.640;10.050;2023-02-11T01:41:49;102446.19;;;19.11;34.48
76973;BME280;65907;53.640;10.050;2023-02-11T01:44:29;102442.56;;;18.57;38.61
76973;BME280;65907;53.640;10.050;2023-02-11T01:46:55;102415.84;;;18.52;40.72
76973;BME280;65907;53.640;10.050;2023-02-11T01:49:22;102418.41;;;18.34;42.50
76973;BME280;65907;53.640;10.050;2023-02-11T01:51:50;102399.47;;;18.69;38.87
76973;BME280;65907;53.640;10.050;2023-02-11T01:54:20;102394.13;;;18.90;37.87
76973;BME280;65907;53.640;10.050;2023-02-11T01:57:04;102390.91;;;19.04;36.69
76973;BME280;65907;53.640;10.050;2023-02-11T02:02:38;102370.97;;;19.20;37.18
76973;BME280;65907;53.640;10.050;2023-02-11T02:05:23;102366.91;;;19.15;37.10
76973;BME280;65907;53.640;10.050;2023-02-11T02:10:35;102368.16;;;18.88;37.92
76973;BME280;65907;53.640;10.050;2023-02-11T02:13:02;102360.53;;;18.84;37.75
76973;BME280;65907;53.640;10.050;2023-02-11T02:30:59;102364.25;;;18.60;37.73
76973;BME280;65907;53.640;10.050;2023-02-11T02:36:12;102374.94;;;18.91;37.08
76973;BME280;65907;53.640;10.050;2023-02-11T02:41:15;102364.69;;;18.88;36.75
76973;BME280;65907;53.640;10.050;2023-02-11T02:43:43;102363.59;;;18.55;37.23
76973;BME280;65907;53.640;10.050;2023-02-11T02:46:13;102354.41;;;18.85;36.64
76973;BME280;65907;53.640;10.050;2023-02-11T02:48:41;102352.63;;;19.04;36.36
76973;BME280;65907;53.640;10.050;2023-02-11T02:58:53;102333.91;;;19.14;36.34
76973;BME280;65907;53.640;10.050;2023-02-11T03:06:43;102340.13;;;19.11;36.00
76973;BME280;65907;53.640;10.050;2023-02-11T03:09:31;102339.13;;;19.14;35.73
76973;BME280;65907;53.640;10.050;2023-02-11T03:11:59;102326.34;;;19.09;36.14
76973;BME280;65907;53.640;10.050;2023-02-11T03:14:27;102330.69;;;19.09;35.80
76973;BME280;65907;53.640;10.050;2023-02-11T03:16:54;102320.09;;;19.12;35.85
76973;BME280;65907;53.640;10.050;2023-02-11T03:19:23;102326.03;;;19.15;35.56
76973;BME280;65907;53.640;10.050;2023-02-11T03:21:50;102318.19;;;19.15;35.58
76973;BME280;65907;53.640;10.050;2023-02-11T03:24:20;102321.78;;;19.13;35.73
76973;BME280;65907;53.640;10.050;2023-02-11T03:26:47;102318.97;;;19.17;35.39
76973;BME280;65907;53.640;10.050;2023-02-11T03:29:34;102313.19;;;19.11;35.34
76973;BME280;65907;53.640;10.050;2023-02-11T03:32:05;102317.59;;;19.10;35.27
76973;BME280;65907;53.640;10.050;2023-02-11T03:34:35;102308.84;;;19.11;35.13
76973;BME280;65907;53.640;10.050;2023-02-11T03:37:07;102294.66;;;18.99;35.31
76973;BME280;65907;53.640;10.050;2023-02-11T03:39:40;102302.94;;;19.08;35.14
76973;BME280;65907;53.640;10.050;2023-02-11T03:42:08;102305.47;;;19.09;35.39
76973;BME280;65907;53.640;10.050;2023-02-11T03:44:36;102304.56;;;19.10;35.09
76973;BME280;65907;53.640;10.050;2023-02-11T03:47:04;102310.59;;;19.11;35.06
76973;BME280;65907;53.640;10.050;2023-02-11T03:49:31;102308.75;;;19.13;34.87
76973;BME280;65907;53.640;10.050;2023-02-11T03:51:57;102312.38;;;19.10;35.18
76973;BME280;65907;53.640;10.050;2023-02-11T03:54:28;102307.78;;;19.15;35.01
76973;BME280;65907;53.640;10.050;2023-02-11T03:56:55;102315.75;;;19.12;34.95
76973;BME280;65907;53.640;10.050;2023-02-11T03:59:21;102312.38;;;19.10;34.90
76973;BME280;65907;53.640;10.050;2023-02-11T04:01:46;102321.78;;;19.13;34.68
76973;BME280;65907;53.640;10.050;2023-02-11T04:04:12;102313.97;;;19.13;34.68
76973;BME280;65907;53.640;10.050;2023-02-11T04:06:37;102306.31;;;19.10;35.06
76973;BME280;65907;53.640;10.050;2023-02-11T04:09:02;102307.94;;;19.12;34.76
76973;BME280;65907;53.640;10.050;2023-02-11T04:11:28;102308.91;;;19.10;34.87
76973;BME280;65907;53.640;10.050;2023-02-11T04:13:53;102323.63;;;19.11;34.51
76973;BME280;65907;53.640;10.050;2023-02-11T04:16:18;102309.00;;;19.08;34.60
76973;BME280;65907;53.640;10.050;2023-02-11T04:18:44;102323.78;;;19.08;34.89
76973;BME280;65907;53.640;10.050;2023-02-11T04:21:09;102318.50;;;19.09;34.76
76973;BME280;65907;53.640;10.050;2023-02-11T04:23:34;102322.88;;;19.09;34.71
76973;BME280;65907;53.640;10.050;2023-02-11T04:26:00;102323.72;;;19.09;34.35
76973;BME280;65907;53.640;10.050;2023-02-11T04:28:25;102316.66;;;19.11;34.38
76973;BME280;65907;53.640;10.050;2023-02-11T04:30:53;102318.41;;;19.11;34.34
76973;BME280;65907;53.640;10.050;2023-02-11T04:33:18;102310.00;;;19.05;34.56
76973;BME280;65907;53.640;10.050;2023-02-11T04:35:43;102310.53;;;19.12;34.14
76973;BME280;65907;53.640;10.050;2023-02-11T04:38:09;102309.00;;;19.08;34.53
76973;BME280;65907;53.640;10.050;2023-02-11T04:40:34;102314.28;;;19.06;34.56
76973;BME280;65907;53.640;10.050;2023-02-11T04:43:01;102319.28;;;19.11;34.46
76973;BME280;65907;53.640;10.050;2023-02-11T04:45:29;102313.31;;;19.09;34.48
76973;BME280;65907;53.640;10.050;2023-02-11T04:47:54;102312.59;;;19.05;34.29
76973;BME280;65907;53.640;10.050;2023-02-11T04:50:20;102309.94;;;19.07;34.15
76973;BME280;65907;53.640;10.050;2023-02-11T04:52:47;102316.72;;;19.10;34.34
76973;BME280;65907;53.640;10.050;2023-02-11T04:55:12;102326.50;;;19.06;34.22
76973;BME280;65907;53.640;10.050;2023-02-11T04:57:38;102320.03;;;19.13;33.96
76973;BME280;65907;53.640;10.050;2023-02-11T05:00:03;102317.50;;;19.12;34.26
76973;BME280;65907;53.640;10.050;2023-02-11T05:02:28;102325.41;;;19.10;34.32
76973;BME280;65907;53.640;10.050;2023-02-11T05:04:56;102326.09;;;19.14;34.08
76973;BME280;65907;53.640;10.050;2023-02-11T05:07:23;102321.88;;;19.11;34.04
76973;BME280;65907;53.640;10.050;2023-02-11T05:09:48;102320.97;;;19.12;33.90
76973;BME280;65907;53.640;10.050;2023-02-11T05:12:14;102313.53;;;19.04;34.16
76973;BME280;65907;53.640;10.050;2023-02-11T05:14:40;102304.78;;;19.05;34.44
76973;BME280;65907;53.640;10.050;2023-02-11T05:17:06;102303.63;;;19.11;34.05
76973;BME280;65907;53.640;10.050;2023-02-11T05:19:31;102307.16;;;19.10;34.23
76973;BME280;65907;53.640;10.050;2023-02-11T05:21:56;102312.28;;;19.12;34.26
76973;BME280;65907;53.640;10.050;2023-02-11T05:24:21;102314.88;;;19.12;34.17
76973;BME280;65907;53.640;10.050;2023-02-11T05:26:47;102309.94;;;19.07;34.06
76973;BME280;65907;53.640;10.050;2023-02-11T05:29:14;102311.53;;;19.10;33.80
76973;BME280;65907;53.640;10.050;2023-02-11T05:31:40;102324.56;;;19.10;33.99
76973;BME280;65907;53.640;10.050;2023-02-11T05:34:05;102329.94;;;19.06;33.77
76973;BME280;65907;53.640;10.050;2023-02-11T05:36:30;102319.59;;;19.05;34.08
76973;BME280;65907;53.640;10.050;2023-02-11T05:38:55;102312.44;;;19.09;33.79
76973;BME280;65907;53.640;10.050;2023-02-11T05:41:21;102312.44;;;19.09;33.78
76973;BME280;65907;53.640;10.050;2023-02-11T05:43:48;102312.38;;;19.10;33.87
76973;BME280;65907;53.640;10.050;2023-02-11T05:46:15;102313.53;;;19.04;33.71
76973;BME280;65907;53.640;10.050;2023-02-11T05:48:40;102310.22;;;19.01;33.85
76973;BME280;65907;53.640;10.050;2023-02-11T05:51:05;102314.22;;;19.08;33.90
76973;BME280;65907;53.640;10.050;2023-02-11T05:53:31;102318.56;;;19.08;34.05
76973;BME280;65907;53.640;10.050;2023-02-11T05:55:56;102312.44;;;19.09;33.75
76973;BME280;65907;53.640;10.050;2023-02-11T05:58:21;102303.03;;;19.06;33.80
76973;BME280;65907;53.640;10.050;2023-02-11T06:00:46;102303.94;;;19.05;33.65
76973;BME280;65907;53.640;10.050;2023-02-11T06:03:12;102312.59;;;19.05;33.95
76973;BME280;65907;53.640;10.050;2023-02-11T06:05:40;102298.72;;;19.05;33.75
76973;BME280;65907;53.640;10.050;2023-02-11T06:08:07;102304.78;;;19.05;33.93
76973;BME280;65907;53.640;10.050;2023-02-11T06:10:32;102310.00;;;19.05;33.82
76973;BME280;65907;53.640;10.050;2023-02-11T06:12:57;102305.00;;;19.01;33.88
76973;BME280;65907;53.640;10.050;2023-02-11T06:15:23;102296.97;;;19.05;33.85
76973;BME280;65907;53.640;10.050;2023-02-11T06:17:48;102310.97;;;19.03;33.78
76973;BME280;65907;53.640;10.050;2023-02-11T06:20:13;102309.16;;;19.05;34.01
76973;BME280;65907;53.640;10.050;2023-02-11T06:22:38;102303.25;;;19.01;33.85
76973;BME280;65907;53.640;10.050;2023-02-11T06:25:03;102309.44;;;18.99;33.91
76973;BME280;65907;53.640;10.050;2023-02-11T06:27:29;102307.53;;;19.02;33.58
76973;BME280;65907;53.640;10.050;2023-02-11T06:29:54;102310.09;;;19.04;33.65
76973;BME280;65907;53.640;10.050;2023-02-11T06:32:19;102305.63;;;19.06;33.86
76973;BME280;65907;53.640;10.050;2023-02-11T06:34:45;102305.75;;;19.03;33.60
76973;BME280;65907;53.640;10.050;2023-02-11T06:37:12;102301.56;;;19.00;33.88
76973;BME280;65907;53.640;10.050;2023-02-11T06:39:37;102310.09;;;19.04;33.58
76973;BME280;65907;53.640;10.050;2023-02-11T06:42:02;102317.22;;;19.00;33.78
76973;BME280;65907;53.640;10.050;2023-02-11T06:44:28;102311.78;;;19.05;33.82
76973;BME280;65907;53.640;10.050;2023-02-11T06:46:56;102320.63;;;19.01;33.78
76973;BME280;65907;53.640;10.050;2023-02-11T06:49:21;102310.97;;;19.03;33.46
76973;BME280;65907;53.640;10.050;2023-02-11T06:51:46;102321.56;;;19.00;33.82
76973;BME280;65907;53.640;10.050;2023-02-11T06:54:14;102317.22;;;19.00;33.55
76973;BME280;65907;53.640;10.050;2023-02-11T06:56:39;102319.88;;;18.99;33.63
76973;BME280;65907;53.640;10.050;2023-02-11T06:59:07;102324.16;;;19.00;33.89
76973;BME280;65907;53.640;10.050;2023-02-11T07:01:33;102324.16;;;19.00;33.82
76973;BME280;65907;53.640;10.050;2023-02-11T07:03:58;102321.41;;;19.03;33.45
76973;BME280;65907;53.640;10.050;2023-02-11T07:06:24;102321.56;;;19.00;33.87
76973;BME280;65907;53.640;10.050;2023-02-11T07:08:51;102314.44;;;19.03;33.71
76973;BME280;65907;53.640;10.050;2023-02-11T07:11:18;102310.34;;;18.98;34.01
76973;BME280;65907;53.640;10.050;2023-02-11T07:13:45;102318.88;;;19.01;33.85
76973;BME280;65907;53.640;10.050;2023-02-11T07:16:11;102321.66;;;18.98;33.70
76973;BME280;65907;53.640;10.050;2023-02-11T07:18:37;102327.63;;;19.00;33.64
76973;BME280;65907;53.640;10.050;2023-02-11T07:21:06;102332.75;;;19.02;33.51
76973;BME280;65907;53.640;10.050;2023-02-11T07:23:31;102335.50;;;18.99;33.64
76973;BME280;65907;53.640;10.050;2023-02-11T07:26:02;102334.44;;;19.03;33.46
76973;BME280;65907;53.640;10.050;2023-02-11T07:28:28;102340.44;;;19.05;33.54
76973;BME280;65907;53.640;10.050;2023-02-11T07:30:56;102333.56;;;19.04;33.49
76973;BME280;65907;53.640;10.050;2023-02-11T07:33:21;102337.03;;;19.03;33.64
76973;BME280;65907;53.640;10.050;2023-02-11T07:35:47;102329.31;;;19.01;33.54
76973;BME280;65907;53.640;10.050;2023-02-11T07:38:12;102337.97;;;19.02;33.66
76973;BME280;65907;53.640;10.050;2023-02-11T07:40:37;102331.84;;;19.03;33.41
76973;BME280;65907;53.640;10.050;2023-02-11T07:43:03;102337.97;;;19.02;33.62
76973;BME280;65907;53.640;10.050;2023-02-11T07:45:28;102332.09;;;18.97;33.65
76973;BME280;65907;53.640;10.050;2023-02-11T07:47:53;102340.56;;;19.02;33.44
76973;BME280;65907;53.640;10.050;2023-02-11T07:50:18;102346.81;;;18.99;33.52
76973;BME280;65907;53.640;10.050;2023-02-11T07:52:46;102348.56;;;18.99;33.57
76973;BME280;65907;53.640;10.050;2023-02-11T07:55:11;102348.50;;;19.00;33.63
76973;BME280;65907;53.640;10.050;2023-02-11T07:57:36;102355.38;;;19.01;33.42
76973;BME280;65907;53.640;10.050;2023-02-11T08:00:02;102347.63;;;19.00;33.58
76973;BME280;65907;53.640;10.050;2023-02-11T08:02:28;102358.81;;;19.02;33.59
76973;BME280;65907;53.640;10.050;2023-02-11T08:04:53;102358.91;;;19.00;33.52
76973;BME280;65907;53.640;10.050;2023-02-11T08:07:19;102358.97;;;18.99;33.55
76973;BME280;65907;53.640;10.050;2023-02-11T08:09:44;102355.44;;;19.00;33.34
76973;BME280;65907;53.640;10.050;2023-02-11T08:12:09;102354.41;;;19.04;33.45
76973;BME280;65907;53.640;10.050;2023-02-11T08:14:34;102349.19;;;19.04;33.56
76973;BME280;65907;53.640;10.050;2023-02-11T08:17:00;102346.59;;;19.04;33.67
76973;BME280;65907;53.640;10.050;2023-02-11T08:19:25;102344.97;;;19.01;33.33
76973;BME280;65907;53.640;10.050;2023-02-11T08:21:53;102343.13;;;19.03;33.74
76973;BME280;65907;53.640;10.050;2023-02-11T08:24:19;102347.47;;;19.03;33.52
76973;BME280;65907;53.640;10.050;2023-02-11T08:26:46;102350.19;;;19.01;33.29
76973;BME280;65907;53.640;10.050;2023-02-11T08:29:14;102344.81;;;19.04;33.28
76973;BME280;65907;53.640;10.050;2023-02-11T08:31:41;102348.34;;;19.03;33.51
76973;BME280;65907;53.640;10.050;2023-02-11T08:34:10;102343.13;;;19.03;33.49
76973;BME280;65907;53.640;10.050;2023-02-11T08:36:36;102348.41;;;19.02;33.33
76973;BME280;65907;53.640;10.050;2023-02-11T08:39:03;102357.91;;;19.03;33.71
76973;BME280;65907;53.640;10.050;2023-02-11T08:41:32;102363.97;;;19.03;33.61
76973;BME280;65907;53.640;10.050;2023-02-11T08:44:00;102363.06;;;19.04;33.42
76973;BME280;65907;53.640;10.050;2023-02-11T08:46:25;102365.88;;;19.00;33.34
76973;BME280;65907;53.640;10.050;2023-02-11T08:48:51;102368.56;;;18.98;33.60
76973;BME280;65907;53.640;10.050;2023-02-11T08:51:18;102372.78;;;19.01;33.52
76973;BME280;65907;53.640;10.050;2023-02-11T08:53:44;102370.16;;;19.01;33.45
76973;BME280;65907;53.640;10.050;2023-02-11T08:56:10;102366.78;;;18.99;33.82
76973;BME280;65907;53.640;10.050;2023-02-11T08:58:35;102379.84;;;18.99;33.76
76973;BME280;65907;53.640;10.050;2023-02-11T09:01:00;102371.09;;;19.00;33.77
76973;BME280;65907;53.640;10.050;2023-02-11T09:03:26;102375.25;;;19.04;33.71
76973;BME280;65907;53.640;10.050;2023-02-11T09:05:51;102377.78;;;19.05;33.63
76973;BME280;65907;53.640;10.050;2023-02-11T09:08:17;102390.91;;;19.04;33.38
76973;BME280;65907;53.640;10.050;2023-02-11T09:10:43;102381.53;;;19.00;33.42
76973;BME280;65907;53.640;10.050;2023-02-11T09:13:08;102387.50;;;19.02;33.45
76973;BME280;65907;53.640;10.050;2023-02-11T09:15:36;102389.47;;;18.97;33.79
76973;BME280;65907;53.640;10.050;2023-02-11T09:18:01;102387.66;;;18.99;33.58
76973;BME280;65907;53.640;10.050;2023-02-11T09:20:27;102390.03;;;19.03;33.41
76973;BME280;65907;53.640;10.050;2023-02-11T09:22:55;102398.09;;;18.99;33.78
76973;BME280;65907;53.640;10.050;2023-02-11T09:25:21;102387.81;;;18.76;34.18
76973;BME280;65907;53.640;10.050;2023-02-11T09:27:46;102390.97;;;19.02;33.58
76973;BME280;65907;53.640;10.050;2023-02-11T09:30:11;102392.72;;;19.02;33.58
76973;BME280;65907;53.640;10.050;2023-02-11T09:32:37;102392.72;;;19.02;33.90
76973;BME280;65907;53.640;10.050;2023-02-11T09:35:02;102401.19;;;19.07;33.56
76973;BME280;65907;53.640;10.050;2023-02-11T09:37:27;102404.72;;;19.06;34.00
76973;BME280;65907;53.640;10.050;2023-02-11T09:39:52;102411.81;;;19.02;33.80
76973;BME280;65907;53.640;10.050;2023-02-11T09:45:04;102419.66;;;19.02;33.95
76973;BME280;65907;53.640;10.050;2023-02-11T09:47:31;102420.41;;;19.04;34.24
76973;BME280;65907;53.640;10.050;2023-02-11T09:50:03;102427.47;;;19.02;33.94
76973;BME280;65907;53.640;10.050;2023-02-11T09:52:36;102434.38;;;19.03;34.37
76973;BME280;65907;53.640;10.050;2023-02-11T09:57:50;102441.13;;;19.08;34.06
76973;BME280;65907;53.640;10.050;2023-02-11T10:00:17;102452.56;;;19.05;34.05
76973;BME280;65907;53.640;10.050;2023-02-11T10:05:14;102452.41;;;19.08;34.40
76973;BME280;65907;53.640;10.050;2023-02-11T10:07:50;102454.09;;;19.09;34.20
76973;BME280;65907;53.640;10.050;2023-02-11T10:13:05;102461.91;;;19.09;34.05
76973;BME280;65907;53.640;10.050;2023-02-11T10:20:38;102463.59;;;19.10;34.65
76973;BME280;65907;53.640;10.050;2023-02-11T10:23:12;102480.38;;;19.04;34.53
76973;BME280;65907;53.640;10.050;2023-02-11T10:25:42;102470.81;;;19.05;34.55
76973;BME280;65907;53.640;10.050;2023-02-11T10:28:27;102468.25;;;19.03;34.71
76973;BME280;65907;53.640;10.050;2023-02-11T10:33:50;102460.09;;;19.11;34.59
76973;BME280;65907;53.640;10.050;2023-02-11T10:36:17;102468.88;;;19.09;34.60
76973;BME280;65907;53.640;10.050;2023-02-11T10:38:43;102462.69;;;19.11;34.57
76973;BME280;65907;53.640;10.050;2023-02-11T10:41:09;102466.13;;;19.12;34.82
76973;BME280;65907;53.640;10.050;2023-02-11T10:43:37;102468.81;;;19.10;34.64
76973;BME280;65907;53.640;10.050;2023-02-11T10:46:05;102469.66;;;19.11;34.84
76973;BME280;65907;53.640;10.050;2023-02-11T10:53:42;102467.13;;;19.09;34.61
76973;BME280;65907;53.640;10.050;2023-02-11T10:56:27;102468.81;;;19.10;34.82
76973;BME280;65907;53.640;10.050;2023-02-11T10:59:04;102466.13;;;19.12;34.77
76973;BME280;65907;53.640;10.050;2023-02-11T11:17:34;102466.13;;;19.12;34.83
76973;BME280;65907;53.640;10.050;2023-02-11T11:22:40;102470.38;;;19.14;35.04
76973;BME280;65907;53.640;10.050;2023-02-11T11:25:22;102484.31;;;19.13;34.78
76973;BME280;65907;53.640;10.050;2023-02-11T11:27:49;102479.03;;;19.15;34.61
76973;BME280;65907;53.640;10.050;2023-02-11T11:30:17;102478.38;;;19.10;34.89
76973;BME280;65907;53.640;10.050;2023-02-11T11:32:42;102480.03;;;19.12;34.74
76973;BME280;65907;53.640;10.050;2023-02-11T11:35:20;102469.81;;;19.08;35.12
76973;BME280;65907;53.640;10.050;2023-02-11T11:37:51;102476.69;;;19.09;34.95
76973;BME280;65907;53.640;10.050;2023-02-11T11:45:32;102496.72;;;19.08;34.88
76973;BME280;65907;53.640;10.050;2023-02-11T11:48:31;102492.19;;;19.12;34.88
76973;BME280;65907;53.640;10.050;2023-02-11T11:50:49;102479.94;;;19.14;34.89
76973;BME280;65907;53.640;10.050;2023-02-11T11:58:35;102479.03;;;19.15;34.76
76973;BME280;65907;53.640;10.050;2023-02-11T12:01:04;102477.97;;;19.19;34.67
76973;BME280;65907;53.640;10.050;2023-02-11T12:16:49;102473.28;;;19.08;35.28
76973;BME280;65907;53.640;10.050;2023-02-11T12:22:09;102470.56;;;19.10;35.14
76973;BME280;65907;53.640;10.050;2023-02-11T12:24:51;102471.50;;;19.09;34.98
76973;BME280;65907;53.640;10.050;2023-02-11T12:27:27;102466.97;;;19.12;35.18
76973;BME280;65907;53.640;10.050;2023-02-11T12:30:15;102467.97;;;19.10;35.19
76973;BME280;65907;53.640;10.050;2023-02-11T12:37:50;102473.13;;;19.11;35.24
76973;BME280;65907;53.640;10.050;2023-02-11T12:40:25;102480.03;;;19.12;35.15
76973;BME280;65907;53.640;10.050;2023-02-11T12:48:15;102489.59;;;19.12;34.99
76973;BME280;65907;53.640;10.050;2023-02-11T12:56:04;102479.69;;;19.38;34.94
76973;BME280;65907;53.640;10.050;2023-02-11T12:58:33;102480.59;;;19.37;34.59
76973;BME280;65907;53.640;10.050;2023-02-11T13:01:02;102480.47;;;19.57;34.21
76973;BME280;65907;53.640;10.050;2023-02-11T13:03:34;102480.63;;;19.72;34.00
76973;BME280;65907;53.640;10.050;2023-02-11T13:06:15;102484.16;;;19.71;33.80
76973;BME280;65907;53.640;10.050;2023-02-11T13:08:46;102471.44;;;19.65;33.96
76973;BME280;65907;53.640;10.050;2023-02-11T13:11:16;102470.94;;;19.56;33.85
76973;BME280;65907;53.640;10.050;2023-02-11T13:13:47;102476.66;;;19.65;34.09
76973;BME280;65907;53.640;10.050;2023-02-11T13:19:06;102472.19;;;19.67;33.96
76973;BME280;65907;53.640;10.050;2023-02-11T13:24:28;102489.69;;;19.65;33.94
76973;BME280;65907;53.640;10.050;2023-02-11T13:32:12;102486.13;;;19.83;33.82
76973;BME280;65907;53.640;10.050;2023-02-11T13:37:12;102486.72;;;19.72;33.66
76973;BME280;65907;53.640;10.050;2023-02-11T13:39:56;102480.31;;;19.78;33.69
76973;BME280;65907;53.640;10.050;2023-02-11T13:42:21;102483.84;;;19.77;33.70
76973;BME280;65907;53.640;10.050;2023-02-11T13:44:46;102484.91;;;19.73;33.67
76973;BME280;65907;53.640;10.050;2023-02-11T13:47:21;102488.28;;;19.75;33.66
76973;BME280;65907;53.640;10.050;2023-02-11T13:49:51;102486.84;;;19.69;33.77
76973;BME280;65907;53.640;10.050;2023-02-11T13:54:55;102486.69;;;19.55;33.92
76973;BME280;65907;53.640;10.050;2023-02-11T13:57:26;102487.25;;;19.61;33.78
76973;BME280;65907;53.640;10.050;2023-02-11T14:00:00;102484.84;;;19.57;33.81
76973;BME280;65907;53.640;10.050;2023-02-11T14:02:31;102483.00;;;19.59;33.86
76973;BME280;65907;53.640;10.050;2023-02-11T14:10:51;102492.19;;;19.12;36.97
76973;BME280;65907;53.640;10.050;2023-02-11T14:13:24;102502.00;;;18.08;39.79
76973;BME280;65907;53.640;10.050;2023-02-11T14:16:10;102501.13;;;17.21;41.90
76973;BME280;65907;53.640;10.050;2023-02-11T14:21:30;102503.72;;;17.86;40.47
76973;BME280;65907;53.640;10.050;2023-02-11T14:28:53;102503.69;;;19.08;37.27
76973;BME280;65907;53.640;10.050;2023-02-11T14:42:01;102515.47;;;19.53;35.73
76973;BME280;65907;53.640;10.050;2023-02-11T14:44:30;102517.16;;;19.54;35.79
76973;BME280;65907;53.640;10.050;2023-02-11T14:46:57;102508.25;;;19.58;35.49
76973;BME280;65907;53.640;10.050;2023-02-11T14:51:48;102516.47;;;19.51;35.99
76973;BME280;65907;53.640;10.050;2023-02-11T14:54:20;102517.44;;;19.48;36.08
76973;BME280;65907;53.640;10.050;2023-02-11T14:59:55;102519.00;;;19.70;35.43
76973;BME280;65907;53.640;10.050;2023-02-11T15:02:23;102514.56;;;19.72;35.40
76973;BME280;65907;53.640;10.050;2023-02-11T15:04:51;102519.72;;;19.73;35.66
76973;BME280;65907;53.640;10.050;2023-02-11T15:07:16;102522.69;;;19.66;35.51
76973;BME280;65907;53.640;10.050;2023-02-11T15:12:23;102524.63;;;19.80;35.34
76973;BME280;65907;53.640;10.050;2023-02-11T15:14:49;102533.97;;;19.66;35.94
76973;BME280;65907;53.640;10.050;2023-02-11T15:17:18;102544.88;;;19.57;35.78
76973;BME280;65907;53.640;10.050;2023-02-11T15:19:47;102537.53;;;19.83;35.58
76973;BME280;65907;53.640;10.050;2023-02-11T15:22:15;102539.44;;;19.79;35.43
76973;BME280;65907;53.640;10.050;2023-02-11T15:24:56;102551.34;;;19.85;35.32
76973;BME280;65907;53.640;10.050;2023-02-11T15:27:26;102557.63;;;19.81;35.14
76973;BME280;65907;53.640;10.050;2023-02-11T15:29:52;102556.94;;;19.77;34.94
76973;BME280;65907;53.640;10.050;2023-02-11T15:32:21;102562.00;;;19.80;35.20
76973;BME280;65907;53.640;10.050;2023-02-11T15:34:49;102562.63;;;19.68;35.05
76973;BME280;65907;53.640;10.050;2023-02-11T15:37:18;102567.53;;;19.74;35.07